sensor_id;sensor_type;location;lat;lon;timestamp;P1;durP1;ratioP1;P2;durP2;ratioP2
69463;SDS011;56665;41.106;16.688;2022-12-07T00:00:50;16.38;;;7.70;;
69463;SDS011;56665;41.106;16.688;2022-12-07T00:03:55;22.40;;;7.47;;
69463;SDS011;56665;41.106;16.688;2022-12-07T00:07:09;20.23;;;7.53;;
69463;SDS011;56665;41.106;16.688;2022-12-07T00:10:16;18.88;;;6.53;;
69463;SDS011;56665;41.106;16.688;2022-12-07T00:13:20;19.87;;;7.17;;
69463;SDS011;56665;41.106;16.688;2022-12-07T00:16:25;19.30;;;7.28;;
69463;SDS011;56665;41.106;16.688;2022-12-07T00:19:30;15.25;;;6.60;;
69463;SDS011;56665;41.106;16.688;2022-12-07T00:22:35;14.77;;;6.38;;
69463;SDS011;56665;41.106;16.688;2022-12-07T00:25:39;13.75;;;6.38;;
69463;SDS011;56665;41.106;16.688;2022-12-07T00:28:46;15.83;;;5.63;;
69463;SDS011;56665;41.106;16.688;2022-12-07T00:31:58;16.33;;;5.68;;
69463;SDS011;56665;41.106;16.688;2022-12-07T00:35:05;15.10;;;5.90;;
69463;SDS011;56665;41.106;16.688;2022-12-07T00:38:10;18.40;;;5.90;;
69463;SDS011;56665;41.106;16.688;2022-12-07T00:41:22;14.48;;;5.60;;
69463;SDS011;56665;41.106;16.688;2022-12-07T00:44:26;18.13;;;6.07;;
69463;SDS011;56665;41.106;16.688;2022-12-07T00:47:31;16.17;;;5.30;;
69463;SDS011;56665;41.106;16.688;2022-12-07T00:50:35;25.67;;;6.72;;
69463;SDS011;56665;41.106;16.688;2022-12-07T00:53:39;20.00;;;6.25;;
69463;SDS011;56665;41.106;16.688;2022-12-07T00:56:43;19.42;;;6.18;;
69463;SDS011;56665;41.106;16.688;2022-12-07T00:59:47;16.63;;;5.27;;
69463;SDS011;56665;41.106;16.688;2022-12-07T01:02:51;17.90;;;6.10;;
69463;SDS011;56665;41.106;16.688;2022-12-07T01:05:55;14.75;;;5.55;;
69463;SDS011;56665;41.106;16.688;2022-12-07T01:09:01;16.80;;;5.03;;
69463;SDS011;56665;41.106;16.688;2022-12-07T01:12:05;19.67;;;5.32;;
69463;SDS011;56665;41.106;16.688;2022-12-07T01:15:08;16.47;;;5.30;;
69463;SDS011;56665;41.106;16.688;2022-12-07T01:18:13;16.70;;;4.72;;
69463;SDS011;56665;41.106;16.688;2022-12-07T01:21:18;17.33;;;5.70;;
69463;SDS011;56665;41.106;16.688;2022-12-07T01:24:24;13.70;;;4.88;;
69463;SDS011;56665;41.106;16.688;2022-12-07T01:27:27;17.67;;;5.30;;
69463;SDS011;56665;41.106;16.688;2022-12-07T01:30:32;15.43;;;5.20;;
69463;SDS011;56665;41.106;16.688;2022-12-07T01:33:36;18.25;;;5.97;;
69463;SDS011;56665;41.106;16.688;2022-12-07T01:36:41;16.73;;;6.20;;
69463;SDS011;56665;41.106;16.688;2022-12-07T01:39:48;21.30;;;7.15;;
69463;SDS011;56665;41.106;16.688;2022-12-07T01:42:55;18.92;;;7.22;;
69463;SDS011;56665;41.106;16.688;2022-12-07T01:45:59;27.27;;;13.00;;
69463;SDS011;56665;41.106;16.688;2022-12-07T01:49:04;33.10;;;17.52;;
69463;SDS011;56665;41.106;16.688;2022-12-07T01:52:18;34.03;;;19.25;;
69463;SDS011;56665;41.106;16.688;2022-12-07T01:55:37;24.17;;;11.30;;
69463;SDS011;56665;41.106;16.688;2022-12-07T01:58:44;22.90;;;8.80;;
69463;SDS011;56665;41.106;16.688;2022-12-07T02:01:51;21.17;;;9.90;;
69463;SDS011;56665;41.106;16.688;2022-12-07T02:04:58;27.20;;;14.55;;
69463;SDS011;56665;41.106;16.688;2022-12-07T02:08:04;23.10;;;12.23;;
69463;SDS011;56665;41.106;16.688;2022-12-07T02:11:10;26.48;;;14.07;;
69463;SDS011;56665;41.106;16.688;2022-12-07T02:14:16;22.92;;;11.90;;
69463;SDS011;56665;41.106;16.688;2022-12-07T02:17:22;24.13;;;11.27;;
69463;SDS011;56665;41.106;16.688;2022-12-07T02:31:05;21.10;;;5.85;;
69463;SDS011;56665;41.106;16.688;2022-12-07T02:44:10;18.35;;;6.40;;
69463;SDS011;56665;41.106;16.688;2022-12-07T02:47:18;12.63;;;5.10;;
69463;SDS011;56665;41.106;16.688;2022-12-07T02:50:25;19.93;;;6.20;;
69463;SDS011;56665;41.106;16.688;2022-12-07T02:53:47;14.20;;;5.28;;
69463;SDS011;56665;41.106;16.688;2022-12-07T03:00:12;13.85;;;5.20;;
69463;SDS011;56665;41.106;16.688;2022-12-07T03:03:19;22.42;;;5.60;;
69463;SDS011;56665;41.106;16.688;2022-12-07T03:06:36;16.83;;;5.37;;
69463;SDS011;56665;41.106;16.688;2022-12-07T03:10:31;16.38;;;5.45;;
69463;SDS011;56665;41.106;16.688;2022-12-07T03:16:53;16.02;;;5.57;;
69463;SDS011;56665;41.106;16.688;2022-12-07T03:20:05;29.15;;;12.07;;
69463;SDS011;56665;41.106;16.688;2022-12-07T03:23:10;86.43;;;39.60;;
69463;SDS011;56665;41.106;16.688;2022-12-07T03:26:17;52.30;;;22.48;;
69463;SDS011;56665;41.106;16.688;2022-12-07T03:29:24;37.42;;;18.48;;
69463;SDS011;56665;41.106;16.688;2022-12-07T03:32:37;23.95;;;11.13;;
69463;SDS011;56665;41.106;16.688;2022-12-07T03:36:09;31.40;;;12.65;;
69463;SDS011;56665;41.106;16.688;2022-12-07T03:43:00;25.48;;;13.07;;
69463;SDS011;56665;41.106;16.688;2022-12-07T03:49:40;20.95;;;9.23;;
69463;SDS011;56665;41.106;16.688;2022-12-07T03:53:22;20.45;;;8.27;;
69463;SDS011;56665;41.106;16.688;2022-12-07T03:56:21;19.03;;;7.10;;
69463;SDS011;56665;41.106;16.688;2022-12-07T03:59:25;17.27;;;7.05;;
69463;SDS011;56665;41.106;16.688;2022-12-07T04:02:30;22.23;;;7.22;;
69463;SDS011;56665;41.106;16.688;2022-12-07T04:05:37;17.75;;;7.50;;
69463;SDS011;56665;41.106;16.688;2022-12-07T04:08:43;18.27;;;7.47;;
69463;SDS011;56665;41.106;16.688;2022-12-07T04:11:48;22.13;;;7.20;;
69463;SDS011;56665;41.106;16.688;2022-12-07T04:14:52;25.10;;;8.85;;
69463;SDS011;56665;41.106;16.688;2022-12-07T04:17:56;21.55;;;8.13;;
69463;SDS011;56665;41.106;16.688;2022-12-07T04:21:01;23.65;;;9.07;;
69463;SDS011;56665;41.106;16.688;2022-12-07T04:24:05;17.88;;;8.57;;
69463;SDS011;56665;41.106;16.688;2022-12-07T04:27:09;22.90;;;9.33;;
69463;SDS011;56665;41.106;16.688;2022-12-07T04:30:14;20.23;;;8.68;;
69463;SDS011;56665;41.106;16.688;2022-12-07T04:33:19;20.48;;;8.43;;
69463;SDS011;56665;41.106;16.688;2022-12-07T04:36:23;14.90;;;6.80;;
69463;SDS011;56665;41.106;16.688;2022-12-07T04:39:28;17.80;;;7.57;;
69463;SDS011;56665;41.106;16.688;2022-12-07T04:42:33;17.80;;;7.53;;
69463;SDS011;56665;41.106;16.688;2022-12-07T04:45:39;16.73;;;6.30;;
69463;SDS011;56665;41.106;16.688;2022-12-07T04:48:43;15.05;;;7.07;;
69463;SDS011;56665;41.106;16.688;2022-12-07T04:51:48;14.80;;;7.70;;
69463;SDS011;56665;41.106;16.688;2022-12-07T04:54:52;15.02;;;7.80;;
69463;SDS011;56665;41.106;16.688;2022-12-07T04:57:55;13.17;;;6.63;;
69463;SDS011;56665;41.106;16.688;2022-12-07T05:01:01;16.42;;;6.60;;
69463;SDS011;56665;41.106;16.688;2022-12-07T05:04:05;12.75;;;6.68;;
69463;SDS011;56665;41.106;16.688;2022-12-07T05:07:09;16.50;;;7.03;;
69463;SDS011;56665;41.106;16.688;2022-12-07T05:10:12;20.13;;;6.85;;
69463;SDS011;56665;41.106;16.688;2022-12-07T05:13:16;14.17;;;6.93;;
69463;SDS011;56665;41.106;16.688;2022-12-07T05:16:20;19.25;;;8.48;;
69463;SDS011;56665;41.106;16.688;2022-12-07T05:19:27;15.45;;;7.20;;
69463;SDS011;56665;41.106;16.688;2022-12-07T05:22:32;15.95;;;7.38;;
69463;SDS011;56665;41.106;16.688;2022-12-07T05:25:37;14.48;;;6.60;;
69463;SDS011;56665;41.106;16.688;2022-12-07T05:28:41;14.40;;;7.33;;
69463;SDS011;56665;41.106;16.688;2022-12-07T05:31:46;16.67;;;7.45;;
69463;SDS011;56665;41.106;16.688;2022-12-07T05:34:50;13.13;;;7.38;;
69463;SDS011;56665;41.106;16.688;2022-12-07T05:37:54;14.57;;;7.25;;
69463;SDS011;56665;41.106;16.688;2022-12-07T05:41:01;11.35;;;6.72;;
69463;SDS011;56665;41.106;16.688;2022-12-07T05:44:08;13.07;;;7.27;;
69463;SDS011;56665;41.106;16.688;2022-12-07T05:47:13;12.80;;;6.70;;
69463;SDS011;56665;41.106;16.688;2022-12-07T05:50:17;11.32;;;6.55;;
69463;SDS011;56665;41.106;16.688;2022-12-07T05:53:38;12.15;;;7.30;;
69463;SDS011;56665;41.106;16.688;2022-12-07T05:56:42;12.35;;;7.00;;
69463;SDS011;56665;41.106;16.688;2022-12-07T05:59:46;14.73;;;7.00;;
69463;SDS011;56665;41.106;16.688;2022-12-07T06:02:49;14.70;;;7.35;;
69463;SDS011;56665;41.106;16.688;2022-12-07T06:05:53;12.45;;;7.55;;
69463;SDS011;56665;41.106;16.688;2022-12-07T06:08:58;15.93;;;7.28;;
69463;SDS011;56665;41.106;16.688;2022-12-07T06:12:01;14.02;;;8.02;;
69463;SDS011;56665;41.106;16.688;2022-12-07T06:15:25;16.73;;;10.40;;
69463;SDS011;56665;41.106;16.688;2022-12-07T06:18:29;23.23;;;11.82;;
69463;SDS011;56665;41.106;16.688;2022-12-07T06:21:33;18.60;;;11.02;;
69463;SDS011;56665;41.106;16.688;2022-12-07T06:24:37;16.92;;;9.10;;
69463;SDS011;56665;41.106;16.688;2022-12-07T06:27:42;17.63;;;8.73;;
69463;SDS011;56665;41.106;16.688;2022-12-07T06:31:05;13.07;;;7.17;;
69463;SDS011;56665;41.106;16.688;2022-12-07T06:34:11;13.15;;;6.80;;
69463;SDS011;56665;41.106;16.688;2022-12-07T06:37:19;12.68;;;7.28;;
69463;SDS011;56665;41.106;16.688;2022-12-07T06:40:24;13.55;;;7.22;;
69463;SDS011;56665;41.106;16.688;2022-12-07T06:43:33;19.13;;;8.02;;
69463;SDS011;56665;41.106;16.688;2022-12-07T06:46:37;15.20;;;8.73;;
69463;SDS011;56665;41.106;16.688;2022-12-07T06:49:42;24.80;;;11.52;;
69463;SDS011;56665;41.106;16.688;2022-12-07T06:52:45;21.55;;;12.70;;
69463;SDS011;56665;41.106;16.688;2022-12-07T06:55:49;21.30;;;11.88;;
69463;SDS011;56665;41.106;16.688;2022-12-07T06:58:53;23.80;;;11.68;;
69463;SDS011;56665;41.106;16.688;2022-12-07T07:01:58;20.07;;;10.40;;
69463;SDS011;56665;41.106;16.688;2022-12-07T07:05:02;21.52;;;9.57;;
69463;SDS011;56665;41.106;16.688;2022-12-07T07:08:07;20.42;;;10.35;;
69463;SDS011;56665;41.106;16.688;2022-12-07T07:11:13;20.63;;;10.43;;
69463;SDS011;56665;41.106;16.688;2022-12-07T07:14:17;18.92;;;11.13;;
69463;SDS011;56665;41.106;16.688;2022-12-07T07:17:22;20.90;;;11.80;;
69463;SDS011;56665;41.106;16.688;2022-12-07T07:20:26;21.17;;;12.02;;
69463;SDS011;56665;41.106;16.688;2022-12-07T07:23:30;17.95;;;10.15;;
69463;SDS011;56665;41.106;16.688;2022-12-07T07:26:34;17.77;;;10.82;;
69463;SDS011;56665;41.106;16.688;2022-12-07T07:29:38;35.10;;;19.60;;
69463;SDS011;56665;41.106;16.688;2022-12-07T07:32:42;34.77;;;20.17;;
69463;SDS011;56665;41.106;16.688;2022-12-07T07:35:49;24.38;;;15.07;;
69463;SDS011;56665;41.106;16.688;2022-12-07T07:38:52;19.35;;;11.13;;
69463;SDS011;56665;41.106;16.688;2022-12-07T07:41:57;16.92;;;9.30;;
69463;SDS011;56665;41.106;16.688;2022-12-07T07:45:04;16.63;;;8.25;;
69463;SDS011;56665;41.106;16.688;2022-12-07T07:48:08;14.90;;;8.20;;
69463;SDS011;56665;41.106;16.688;2022-12-07T07:51:12;13.57;;;9.05;;
69463;SDS011;56665;41.106;16.688;2022-12-07T07:54:17;15.05;;;9.07;;
69463;SDS011;56665;41.106;16.688;2022-12-07T07:57:20;15.18;;;9.48;;
69463;SDS011;56665;41.106;16.688;2022-12-07T08:00:24;15.75;;;9.73;;
69463;SDS011;56665;41.106;16.688;2022-12-07T08:03:28;14.87;;;9.33;;
69463;SDS011;56665;41.106;16.688;2022-12-07T08:06:33;17.50;;;9.02;;
69463;SDS011;56665;41.106;16.688;2022-12-07T08:09:37;18.70;;;11.00;;
69463;SDS011;56665;41.106;16.688;2022-12-07T08:12:42;18.60;;;10.68;;
69463;SDS011;56665;41.106;16.688;2022-12-07T08:16:07;18.08;;;10.32;;
69463;SDS011;56665;41.106;16.688;2022-12-07T08:19:13;15.10;;;8.90;;
69463;SDS011;56665;41.106;16.688;2022-12-07T08:22:17;13.68;;;7.60;;
69463;SDS011;56665;41.106;16.688;2022-12-07T08:25:22;14.82;;;7.80;;
69463;SDS011;56665;41.106;16.688;2022-12-07T08:28:26;12.43;;;6.70;;
69463;SDS011;56665;41.106;16.688;2022-12-07T08:31:32;13.90;;;6.93;;
69463;SDS011;56665;41.106;16.688;2022-12-07T08:34:36;11.80;;;6.80;;
69463;SDS011;56665;41.106;16.688;2022-12-07T08:37:40;14.65;;;7.53;;
69463;SDS011;56665;41.106;16.688;2022-12-07T08:40:45;10.07;;;6.40;;
69463;SDS011;56665;41.106;16.688;2022-12-07T08:43:59;8.80;;;5.28;;
69463;SDS011;56665;41.106;16.688;2022-12-07T08:47:04;9.68;;;5.15;;
69463;SDS011;56665;41.106;16.688;2022-12-07T08:50:14;8.53;;;4.90;;
69463;SDS011;56665;41.106;16.688;2022-12-07T08:53:19;8.18;;;5.05;;
69463;SDS011;56665;41.106;16.688;2022-12-07T08:56:24;7.68;;;4.80;;
69463;SDS011;56665;41.106;16.688;2022-12-07T08:59:29;7.57;;;4.75;;
69463;SDS011;56665;41.106;16.688;2022-12-07T09:02:36;9.23;;;5.53;;
69463;SDS011;56665;41.106;16.688;2022-12-07T09:05:41;7.73;;;5.10;;
69463;SDS011;56665;41.106;16.688;2022-12-07T09:08:51;8.88;;;4.70;;
69463;SDS011;56665;41.106;16.688;2022-12-07T09:11:58;8.27;;;4.50;;
69463;SDS011;56665;41.106;16.688;2022-12-07T09:15:01;11.45;;;5.15;;
69463;SDS011;56665;41.106;16.688;2022-12-07T09:18:11;10.52;;;4.90;;
69463;SDS011;56665;41.106;16.688;2022-12-07T09:21:15;7.43;;;4.20;;
69463;SDS011;56665;41.106;16.688;2022-12-07T09:24:19;7.35;;;4.25;;
69463;SDS011;56665;41.106;16.688;2022-12-07T09:27:30;7.65;;;4.20;;
69463;SDS011;56665;41.106;16.688;2022-12-07T09:30:35;6.80;;;3.40;;
69463;SDS011;56665;41.106;16.688;2022-12-07T09:33:42;7.55;;;3.58;;
69463;SDS011;56665;41.106;16.688;2022-12-07T09:36:49;6.77;;;3.00;;
69463;SDS011;56665;41.106;16.688;2022-12-07T09:39:53;7.00;;;3.35;;
69463;SDS011;56665;41.106;16.688;2022-12-07T09:43:01;5.38;;;3.70;;
69463;SDS011;56665;41.106;16.688;2022-12-07T09:46:06;9.65;;;4.22;;
69463;SDS011;56665;41.106;16.688;2022-12-07T09:49:16;10.25;;;4.07;;
69463;SDS011;56665;41.106;16.688;2022-12-07T09:52:27;10.17;;;4.57;;
69463;SDS011;56665;41.106;16.688;2022-12-07T09:55:33;9.20;;;3.60;;
69463;SDS011;56665;41.106;16.688;2022-12-07T09:58:44;7.00;;;4.10;;
69463;SDS011;56665;41.106;16.688;2022-12-07T10:01:48;8.45;;;4.10;;
69463;SDS011;56665;41.106;16.688;2022-12-07T10:04:58;7.15;;;4.00;;
69463;SDS011;56665;41.106;16.688;2022-12-07T10:08:07;9.27;;;3.83;;
69463;SDS011;56665;41.106;16.688;2022-12-07T10:11:13;14.25;;;3.63;;
69463;SDS011;56665;41.106;16.688;2022-12-07T10:14:19;6.47;;;3.67;;
69463;SDS011;56665;41.106;16.688;2022-12-07T10:17:37;9.38;;;5.20;;
69463;SDS011;56665;41.106;16.688;2022-12-07T10:20:47;9.88;;;5.82;;
69463;SDS011;56665;41.106;16.688;2022-12-07T10:24:13;13.87;;;6.07;;
69463;SDS011;56665;41.106;16.688;2022-12-07T10:27:37;13.50;;;4.72;;
69463;SDS011;56665;41.106;16.688;2022-12-07T10:30:49;9.65;;;5.00;;
69463;SDS011;56665;41.106;16.688;2022-12-07T10:34:02;10.90;;;4.75;;
69463;SDS011;56665;41.106;16.688;2022-12-07T10:40:27;11.87;;;6.20;;
69463;SDS011;56665;41.106;16.688;2022-12-07T10:43:46;10.45;;;5.07;;
69463;SDS011;56665;41.106;16.688;2022-12-07T10:57:35;21.10;;;12.63;;
69463;SDS011;56665;41.106;16.688;2022-12-07T11:11:23;27.63;;;14.82;;
69463;SDS011;56665;41.106;16.688;2022-12-07T11:15:08;27.90;;;16.63;;
69463;SDS011;56665;41.106;16.688;2022-12-07T11:21:50;27.63;;;14.68;;
69463;SDS011;56665;41.106;16.688;2022-12-07T11:25:51;24.30;;;12.93;;
69463;SDS011;56665;41.106;16.688;2022-12-07T11:39:52;21.00;;;10.55;;
69463;SDS011;56665;41.106;16.688;2022-12-07T11:43:21;17.20;;;8.80;;
69463;SDS011;56665;41.106;16.688;2022-12-07T11:46:42;22.98;;;12.15;;
69463;SDS011;56665;41.106;16.688;2022-12-07T11:50:27;22.73;;;9.27;;
69463;SDS011;56665;41.106;16.688;2022-12-07T11:53:52;23.05;;;9.45;;
69463;SDS011;56665;41.106;16.688;2022-12-07T11:57:02;20.92;;;9.25;;
69463;SDS011;56665;41.106;16.688;2022-12-07T12:00:22;20.55;;;9.35;;
69463;SDS011;56665;41.106;16.688;2022-12-07T12:03:28;17.95;;;9.10;;
69463;SDS011;56665;41.106;16.688;2022-12-07T12:06:36;18.77;;;9.07;;
69463;SDS011;56665;41.106;16.688;2022-12-07T12:09:47;20.08;;;9.27;;
69463;SDS011;56665;41.106;16.688;2022-12-07T12:13:45;17.25;;;8.20;;
69463;SDS011;56665;41.106;16.688;2022-12-07T12:23:22;20.07;;;11.23;;
69463;SDS011;56665;41.106;16.688;2022-12-07T12:26:31;18.02;;;10.30;;
69463;SDS011;56665;41.106;16.688;2022-12-07T12:29:40;22.20;;;10.57;;
69463;SDS011;56665;41.106;16.688;2022-12-07T12:32:44;19.02;;;10.40;;
69463;SDS011;56665;41.106;16.688;2022-12-07T12:36:16;18.45;;;9.40;;
69463;SDS011;56665;41.106;16.688;2022-12-07T12:39:19;17.13;;;8.57;;
69463;SDS011;56665;41.106;16.688;2022-12-07T12:42:42;17.42;;;9.07;;
69463;SDS011;56665;41.106;16.688;2022-12-07T12:49:37;25.55;;;11.10;;
69463;SDS011;56665;41.106;16.688;2022-12-07T12:52:47;22.23;;;11.30;;
69463;SDS011;56665;41.106;16.688;2022-12-07T12:56:23;25.60;;;11.03;;
69463;SDS011;56665;41.106;16.688;2022-12-07T12:59:36;25.13;;;10.45;;
69463;SDS011;56665;41.106;16.688;2022-12-07T13:02:56;17.35;;;9.00;;
69463;SDS011;56665;41.106;16.688;2022-12-07T13:09:32;22.17;;;9.88;;
69463;SDS011;56665;41.106;16.688;2022-12-07T13:12:38;26.77;;;9.87;;
69463;SDS011;56665;41.106;16.688;2022-12-07T13:15:45;20.13;;;9.60;;
69463;SDS011;56665;41.106;16.688;2022-12-07T13:18:50;19.95;;;9.68;;
69463;SDS011;56665;41.106;16.688;2022-12-07T13:21:53;19.27;;;9.45;;
69463;SDS011;56665;41.106;16.688;2022-12-07T13:28:23;23.60;;;10.67;;
69463;SDS011;56665;41.106;16.688;2022-12-07T13:31:46;19.48;;;8.45;;
69463;SDS011;56665;41.106;16.688;2022-12-07T13:34:55;20.02;;;8.25;;
69463;SDS011;56665;41.106;16.688;2022-12-07T13:38:00;18.20;;;8.10;;
69463;SDS011;56665;41.106;16.688;2022-12-07T13:41:13;18.50;;;7.93;;
69463;SDS011;56665;41.106;16.688;2022-12-07T13:44:19;16.03;;;8.63;;
69463;SDS011;56665;41.106;16.688;2022-12-07T13:47:43;20.90;;;10.50;;
69463;SDS011;56665;41.106;16.688;2022-12-07T13:50:53;19.48;;;10.23;;
69463;SDS011;56665;41.106;16.688;2022-12-07T13:54:00;21.38;;;9.07;;
69463;SDS011;56665;41.106;16.688;2022-12-07T13:57:13;18.65;;;9.30;;
69463;SDS011;56665;41.106;16.688;2022-12-07T14:00:20;17.53;;;9.37;;
69463;SDS011;56665;41.106;16.688;2022-12-07T14:03:27;16.95;;;8.82;;
69463;SDS011;56665;41.106;16.688;2022-12-07T14:06:33;19.75;;;8.85;;
69463;SDS011;56665;41.106;16.688;2022-12-07T14:10:04;21.75;;;9.80;;
69463;SDS011;56665;41.106;16.688;2022-12-07T14:13:32;19.25;;;9.60;;
69463;SDS011;56665;41.106;16.688;2022-12-07T14:16:54;23.87;;;9.83;;
69463;SDS011;56665;41.106;16.688;2022-12-07T14:20:28;21.50;;;11.88;;
69463;SDS011;56665;41.106;16.688;2022-12-07T14:23:45;26.02;;;14.23;;
69463;SDS011;56665;41.106;16.688;2022-12-07T14:27:15;29.70;;;13.10;;
69463;SDS011;56665;41.106;16.688;2022-12-07T14:30:25;26.20;;;13.02;;
69463;SDS011;56665;41.106;16.688;2022-12-07T14:33:33;21.77;;;11.07;;
69463;SDS011;56665;41.106;16.688;2022-12-07T14:36:37;22.10;;;12.23;;
69463;SDS011;56665;41.106;16.688;2022-12-07T14:39:41;25.40;;;10.82;;
69463;SDS011;56665;41.106;16.688;2022-12-07T14:42:46;20.60;;;9.32;;
69463;SDS011;56665;41.106;16.688;2022-12-07T14:45:56;19.42;;;9.45;;
69463;SDS011;56665;41.106;16.688;2022-12-07T14:49:02;24.67;;;12.77;;
69463;SDS011;56665;41.106;16.688;2022-12-07T14:52:09;26.95;;;10.98;;
69463;SDS011;56665;41.106;16.688;2022-12-07T14:55:26;25.38;;;12.10;;
69463;SDS011;56665;41.106;16.688;2022-12-07T14:58:32;27.13;;;12.18;;
69463;SDS011;56665;41.106;16.688;2022-12-07T15:01:36;23.50;;;13.05;;
69463;SDS011;56665;41.106;16.688;2022-12-07T15:04:43;29.70;;;14.03;;
69463;SDS011;56665;41.106;16.688;2022-12-07T15:07:47;31.00;;;15.05;;
69463;SDS011;56665;41.106;16.688;2022-12-07T15:10:57;29.52;;;14.45;;
69463;SDS011;56665;41.106;16.688;2022-12-07T15:14:01;28.52;;;16.30;;
69463;SDS011;56665;41.106;16.688;2022-12-07T15:17:11;28.88;;;16.05;;
69463;SDS011;56665;41.106;16.688;2022-12-07T15:20:16;28.23;;;13.97;;
69463;SDS011;56665;41.106;16.688;2022-12-07T15:23:23;25.23;;;13.60;;
69463;SDS011;56665;41.106;16.688;2022-12-07T15:26:32;29.38;;;13.82;;
69463;SDS011;56665;41.106;16.688;2022-12-07T15:29:36;30.85;;;14.13;;
69463;SDS011;56665;41.106;16.688;2022-12-07T15:32:40;28.17;;;15.80;;
69463;SDS011;56665;41.106;16.688;2022-12-07T15:35:44;35.20;;;16.63;;
69463;SDS011;56665;41.106;16.688;2022-12-07T15:38:51;32.72;;;16.90;;
69463;SDS011;56665;41.106;16.688;2022-12-07T15:41:55;29.42;;;16.02;;
69463;SDS011;56665;41.106;16.688;2022-12-07T15:44:59;29.70;;;16.17;;
69463;SDS011;56665;41.106;16.688;2022-12-07T15:48:08;33.80;;;16.73;;
69463;SDS011;56665;41.106;16.688;2022-12-07T15:51:15;38.30;;;17.97;;
69463;SDS011;56665;41.106;16.688;2022-12-07T15:54:23;48.00;;;19.50;;
69463;SDS011;56665;41.106;16.688;2022-12-07T15:57:30;34.75;;;18.70;;
69463;SDS011;56665;41.106;16.688;2022-12-07T16:00:36;47.35;;;18.52;;
69463;SDS011;56665;41.106;16.688;2022-12-07T16:03:50;34.15;;;18.17;;
69463;SDS011;56665;41.106;16.688;2022-12-07T16:06:57;31.10;;;18.17;;
69463;SDS011;56665;41.106;16.688;2022-12-07T16:10:01;38.35;;;18.70;;
69463;SDS011;56665;41.106;16.688;2022-12-07T16:13:06;32.25;;;18.05;;
69463;SDS011;56665;41.106;16.688;2022-12-07T16:16:11;39.97;;;19.73;;
69463;SDS011;56665;41.106;16.688;2022-12-07T16:19:21;36.67;;;19.65;;
69463;SDS011;56665;41.106;16.688;2022-12-07T16:22:25;138.53;;;66.37;;
69463;SDS011;56665;41.106;16.688;2022-12-07T16:25:30;62.53;;;31.85;;
69463;SDS011;56665;41.106;16.688;2022-12-07T16:28:34;48.15;;;24.80;;
69463;SDS011;56665;41.106;16.688;2022-12-07T16:31:38;51.03;;;24.75;;
69463;SDS011;56665;41.106;16.688;2022-12-07T16:34:42;48.83;;;28.55;;
69463;SDS011;56665;41.106;16.688;2022-12-07T16:37:46;103.37;;;50.83;;
69463;SDS011;56665;41.106;16.688;2022-12-07T16:40:53;98.18;;;49.35;;
69463;SDS011;56665;41.106;16.688;2022-12-07T16:43:56;76.38;;;38.42;;
69463;SDS011;56665;41.106;16.688;2022-12-07T16:47:04;64.50;;;33.70;;
69463;SDS011;56665;41.106;16.688;2022-12-07T16:50:10;53.78;;;28.35;;
69463;SDS011;56665;41.106;16.688;2022-12-07T16:53:16;56.50;;;30.73;;
69463;SDS011;56665;41.106;16.688;2022-12-07T16:56:23;70.75;;;30.60;;
69463;SDS011;56665;41.106;16.688;2022-12-07T16:59:30;80.25;;;39.03;;
69463;SDS011;56665;41.106;16.688;2022-12-07T17:02:37;80.80;;;40.30;;
69463;SDS011;56665;41.106;16.688;2022-12-07T17:05:42;83.63;;;40.25;;
69463;SDS011;56665;41.106;16.688;2022-12-07T17:08:47;85.77;;;39.57;;
69463;SDS011;56665;41.106;16.688;2022-12-07T17:11:53;75.97;;;34.75;;
69463;SDS011;56665;41.106;16.688;2022-12-07T17:14:57;65.60;;;30.63;;
69463;SDS011;56665;41.106;16.688;2022-12-07T17:18:24;62.25;;;28.98;;
69463;SDS011;56665;41.106;16.688;2022-12-07T17:21:30;66.93;;;31.17;;
69463;SDS011;56665;41.106;16.688;2022-12-07T17:24:37;66.60;;;32.27;;
69463;SDS011;56665;41.106;16.688;2022-12-07T17:27:43;58.67;;;32.22;;
69463;SDS011;56665;41.106;16.688;2022-12-07T17:30:47;64.97;;;32.25;;
69463;SDS011;56665;41.106;16.688;2022-12-07T17:33:54;70.20;;;34.08;;
69463;SDS011;56665;41.106;16.688;2022-12-07T17:37:01;71.75;;;34.65;;
69463;SDS011;56665;41.106;16.688;2022-12-07T17:40:05;70.77;;;33.13;;
69463;SDS011;56665;41.106;16.688;2022-12-07T17:43:12;66.45;;;33.83;;
69463;SDS011;56665;41.106;16.688;2022-12-07T17:46:19;73.65;;;41.72;;
69463;SDS011;56665;41.106;16.688;2022-12-07T17:49:23;93.25;;;42.53;;
69463;SDS011;56665;41.106;16.688;2022-12-07T17:52:30;117.18;;;47.15;;
69463;SDS011;56665;41.106;16.688;2022-12-07T17:55:52;118.73;;;46.43;;
69463;SDS011;56665;41.106;16.688;2022-12-07T17:58:58;103.57;;;43.22;;
69463;SDS011;56665;41.106;16.688;2022-12-07T18:02:02;102.82;;;42.42;;
69463;SDS011;56665;41.106;16.688;2022-12-07T18:05:06;98.20;;;41.13;;
69463;SDS011;56665;41.106;16.688;2022-12-07T18:08:11;109.78;;;48.42;;
69463;SDS011;56665;41.106;16.688;2022-12-07T18:11:15;96.57;;;43.07;;
69463;SDS011;56665;41.106;16.688;2022-12-07T18:14:19;113.07;;;42.88;;
69463;SDS011;56665;41.106;16.688;2022-12-07T18:17:23;103.63;;;45.38;;
69463;SDS011;56665;41.106;16.688;2022-12-07T18:20:27;99.45;;;44.70;;
69463;SDS011;56665;41.106;16.688;2022-12-07T18:23:31;96.13;;;43.53;;
69463;SDS011;56665;41.106;16.688;2022-12-07T18:26:37;121.60;;;49.10;;
69463;SDS011;56665;41.106;16.688;2022-12-07T18:29:42;121.13;;;48.83;;
69463;SDS011;56665;41.106;16.688;2022-12-07T18:32:46;103.30;;;46.30;;
69463;SDS011;56665;41.106;16.688;2022-12-07T18:35:52;86.30;;;37.00;;
69463;SDS011;56665;41.106;16.688;2022-12-07T18:38:56;72.18;;;35.45;;
69463;SDS011;56665;41.106;16.688;2022-12-07T18:42:00;82.77;;;36.83;;
69463;SDS011;56665;41.106;16.688;2022-12-07T18:45:04;77.90;;;40.00;;
69463;SDS011;56665;41.106;16.688;2022-12-07T18:48:09;57.47;;;29.58;;
69463;SDS011;56665;41.106;16.688;2022-12-07T18:51:13;70.40;;;30.77;;
69463;SDS011;56665;41.106;16.688;2022-12-07T18:54:18;95.80;;;38.60;;
69463;SDS011;56665;41.106;16.688;2022-12-07T18:57:23;93.27;;;40.63;;
69463;SDS011;56665;41.106;16.688;2022-12-07T19:00:28;92.40;;;41.88;;
69463;SDS011;56665;41.106;16.688;2022-12-07T19:03:34;90.60;;;40.50;;
69463;SDS011;56665;41.106;16.688;2022-12-07T19:06:42;89.50;;;39.38;;
69463;SDS011;56665;41.106;16.688;2022-12-07T19:09:50;87.20;;;39.88;;
69463;SDS011;56665;41.106;16.688;2022-12-07T19:12:55;99.07;;;43.27;;
69463;SDS011;56665;41.106;16.688;2022-12-07T19:16:00;120.55;;;47.50;;
69463;SDS011;56665;41.106;16.688;2022-12-07T19:19:09;90.82;;;40.15;;
69463;SDS011;56665;41.106;16.688;2022-12-07T19:22:16;86.82;;;39.08;;
69463;SDS011;56665;41.106;16.688;2022-12-07T19:25:21;87.43;;;38.53;;
69463;SDS011;56665;41.106;16.688;2022-12-07T19:28:25;71.03;;;33.63;;
69463;SDS011;56665;41.106;16.688;2022-12-07T19:31:32;58.47;;;29.15;;
69463;SDS011;56665;41.106;16.688;2022-12-07T19:34:37;57.03;;;27.85;;
69463;SDS011;56665;41.106;16.688;2022-12-07T19:37:45;53.95;;;27.42;;
69463;SDS011;56665;41.106;16.688;2022-12-07T19:40:49;47.85;;;28.80;;
69463;SDS011;56665;41.106;16.688;2022-12-07T19:43:56;49.77;;;27.93;;